sensor_id;sensor_type;location;lat;lon;timestamp;temperature;humidity
73121;DHT22;61307;49.628;-1.624;2024-01-11T00:00:04;21.10;27.30
73121;DHT22;61307;49.628;-1.624;2024-01-11T00:02:32;21.10;27.30
73121;DHT22;61307;49.628;-1.624;2024-01-11T00:04:59;21.10;27.20
73121;DHT22;61307;49.628;-1.624;2024-01-11T00:07:26;21.10;27.20
73121;DHT22;61307;49.628;-1.624;2024-01-11T00:09:54;21.20;27.30
73121;DHT22;61307;49.628;-1.624;2024-01-11T00:12:21;21.10;27.20
73121;DHT22;61307;49.628;-1.624;2024-01-11T00:14:47;21.20;27.30
73121;DHT22;61307;49.628;-1.624;2024-01-11T00:17:14;21.20;27.20
73121;DHT22;61307;49.628;-1.624;2024-01-11T00:19:41;21.20;27.30
73121;DHT22;61307;49.628;-1.624;2024-01-11T00:22:08;21.20;27.20
73121;DHT22;61307;49.628;-1.624;2024-01-11T00:24:35;21.20;27.20
73121;DHT22;61307;49.628;-1.624;2024-01-11T00:27:04;21.20;27.20
73121;DHT22;61307;49.628;-1.624;2024-01-11T00:29:30;21.20;27.10
73121;DHT22;61307;49.628;-1.624;2024-01-11T00:31:57;21.20;27.10
73121;DHT22;61307;49.628;-1.624;2024-01-11T00:34:24;21.20;27.10
73121;DHT22;61307;49.628;-1.624;2024-01-11T00:36:51;21.20;27.10
73121;DHT22;61307;49.628;-1.624;2024-01-11T00:39:18;21.20;27.10
73121;DHT22;61307;49.628;-1.624;2024-01-11T00:41:45;21.20;27.10
73121;DHT22;61307;49.628;-1.624;2024-01-11T00:44:13;21.20;27.10
73121;DHT22;61307;49.628;-1.624;2024-01-11T00:46:40;21.20;27.00
73121;DHT22;61307;49.628;-1.624;2024-01-11T00:49:07;21.20;27.10
73121;DHT22;61307;49.628;-1.624;2024-01-11T00:51:34;21.20;27.10
73121;DHT22;61307;49.628;-1.624;2024-01-11T00:54:01;21.20;27.00
73121;DHT22;61307;49.628;-1.624;2024-01-11T00:56:28;21.20;27.00
73121;DHT22;61307;49.628;-1.624;2024-01-11T00:58:55;21.20;27.50
73121;DHT22;61307;49.628;-1.624;2024-01-11T01:01:23;21.20;27.00
73121;DHT22;61307;49.628;-1.624;2024-01-11T01:03:50;21.20;27.00
73121;DHT22;61307;49.628;-1.624;2024-01-11T01:06:17;21.20;27.00
73121;DHT22;61307;49.628;-1.624;2024-01-11T01:08:43;21.20;27.00
73121;DHT22;61307;49.628;-1.624;2024-01-11T01:11:10;21.20;27.00
73121;DHT22;61307;49.628;-1.624;2024-01-11T01:13:37;21.20;27.00
73121;DHT22;61307;49.628;-1.624;2024-01-11T01:16:04;21.20;26.90
73121;DHT22;61307;49.628;-1.624;2024-01-11T01:18:32;21.20;26.90
73121;DHT22;61307;49.628;-1.624;2024-01-11T01:20:59;21.20;26.90
73121;DHT22;61307;49.628;-1.624;2024-01-11T01:23:26;21.20;26.90
73121;DHT22;61307;49.628;-1.624;2024-01-11T01:25:53;21.20;26.90
73121;DHT22;61307;49.628;-1.624;2024-01-11T01:28:20;21.20;26.80
73121;DHT22;61307;49.628;-1.624;2024-01-11T01:30:47;21.20;26.90
73121;DHT22;61307;49.628;-1.624;2024-01-11T01:33:13;21.20;26.90
73121;DHT22;61307;49.628;-1.624;2024-01-11T01:35:42;21.30;26.90
73121;DHT22;61307;49.628;-1.624;2024-01-11T01:38:08;21.20;26.90
73121;DHT22;61307;49.628;-1.624;2024-01-11T01:40:37;21.20;26.80
73121;DHT22;61307;49.628;-1.624;2024-01-11T01:43:07;21.20;26.80
73121;DHT22;61307;49.628;-1.624;2024-01-11T01:45:34;21.20;26.80
73121;DHT22;61307;49.628;-1.624;2024-01-11T01:48:01;21.30;26.90
73121;DHT22;61307;49.628;-1.624;2024-01-11T01:50:29;21.20;26.80
73121;DHT22;61307;49.628;-1.624;2024-01-11T01:52:58;21.20;26.70
73121;DHT22;61307;49.628;-1.624;2024-01-11T01:55:26;21.30;26.80
73121;DHT22;61307;49.628;-1.624;2024-01-11T01:57:53;21.30;26.80
73121;DHT22;61307;49.628;-1.624;2024-01-11T02:00:21;21.30;27.30
73121;DHT22;61307;49.628;-1.624;2024-01-11T02:02:50;21.30;26.80
73121;DHT22;61307;49.628;-1.624;2024-01-11T02:05:18;21.30;26.80
73121;DHT22;61307;49.628;-1.624;2024-01-11T02:07:45;21.30;26.80
73121;DHT22;61307;49.628;-1.624;2024-01-11T02:10:13;21.30;27.30
73121;DHT22;61307;49.628;-1.624;2024-01-11T02:12:41;21.30;26.70
73121;DHT22;61307;49.628;-1.624;2024-01-11T02:15:08;21.30;26.70
73121;DHT22;61307;49.628;-1.624;2024-01-11T02:17:36;21.30;26.70
73121;DHT22;61307;49.628;-1.624;2024-01-11T02:20:03;21.30;26.70
73121;DHT22;61307;49.628;-1.624;2024-01-11T02:22:34;21.30;26.70
73121;DHT22;61307;49.628;-1.624;2024-01-11T02:25:02;21.30;26.70
73121;DHT22;61307;49.628;-1.624;2024-01-11T02:27:29;21.30;26.70
73121;DHT22;61307;49.628;-1.624;2024-01-11T02:29:56;21.30;26.70
73121;DHT22;61307;49.628;-1.624;2024-01-11T02:32:23;21.30;26.70
73121;DHT22;61307;49.628;-1.624;2024-01-11T02:34:50;21.30;26.70
73121;DHT22;61307;49.628;-1.624;2024-01-11T02:37:18;21.30;26.70
73121;DHT22;61307;49.628;-1.624;2024-01-11T02:39:46;21.30;26.60
73121;DHT22;61307;49.628;-1.624;2024-01-11T02:42:14;21.30;26.70
73121;DHT22;61307;49.628;-1.624;2024-01-11T02:44:41;21.30;26.60
73121;DHT22;61307;49.628;-1.624;2024-01-11T02:47:08;21.40;26.70
73121;DHT22;61307;49.628;-1.624;2024-01-11T02:49:35;21.30;26.60
73121;DHT22;61307;49.628;-1.624;2024-01-11T02:52:02;21.40;26.70
73121;DHT22;61307;49.628;-1.624;2024-01-11T02:54:29;21.30;26.60
73121;DHT22;61307;49.628;-1.624;2024-01-11T02:56:56;21.40;27.10
73121;DHT22;61307;49.628;-1.624;2024-01-11T02:59:24;21.30;26.60
73121;DHT22;61307;49.628;-1.624;2024-01-11T03:01:51;21.40;26.60
73121;DHT22;61307;49.628;-1.624;2024-01-11T03:04:18;21.40;26.60
73121;DHT22;61307;49.628;-1.624;2024-01-11T03:06:44;21.40;26.60
73121;DHT22;61307;49.628;-1.624;2024-01-11T03:09:11;21.40;26.70
73121;DHT22;61307;49.628;-1.624;2024-01-11T03:11:38;21.40;26.60
73121;DHT22;61307;49.628;-1.624;2024-01-11T03:14:06;21.40;26.70
73121;DHT22;61307;49.628;-1.624;2024-01-11T03:16:34;21.30;26.60
73121;DHT22;61307;49.628;-1.624;2024-01-11T03:19:01;21.30;26.60
73121;DHT22;61307;49.628;-1.624;2024-01-11T03:21:28;21.40;26.60
73121;DHT22;61307;49.628;-1.624;2024-01-11T03:23:55;21.40;26.60
73121;DHT22;61307;49.628;-1.624;2024-01-11T03:26:22;21.30;26.50
73121;DHT22;61307;49.628;-1.624;2024-01-11T03:28:49;21.30;26.50
73121;DHT22;61307;49.628;-1.624;2024-01-11T03:31:16;21.40;26.60
73121;DHT22;61307;49.628;-1.624;2024-01-11T03:33:44;21.40;26.60
73121;DHT22;61307;49.628;-1.624;2024-01-11T03:36:11;21.40;26.60
73121;DHT22;61307;49.628;-1.624;2024-01-11T03:38:38;21.40;26.60
73121;DHT22;61307;49.628;-1.624;2024-01-11T03:41:08;21.40;26.60
73121;DHT22;61307;49.628;-1.624;2024-01-11T03:43:35;21.40;26.60
73121;DHT22;61307;49.628;-1.624;2024-01-11T03:46:02;21.40;26.50
73121;DHT22;61307;49.628;-1.624;2024-01-11T03:48:29;21.40;26.50
73121;DHT22;61307;49.628;-1.624;2024-01-11T03:50:58;21.40;26.50
73121;DHT22;61307;49.628;-1.624;2024-01-11T03:53:25;21.40;26.50
73121;DHT22;61307;49.628;-1.624;2024-01-11T03:55:51;21.40;26.50
73121;DHT22;61307;49.628;-1.624;2024-01-11T03:58:18;21.40;26.50
73121;DHT22;61307;49.628;-1.624;2024-01-11T04:00:45;21.40;26.50
73121;DHT22;61307;49.628;-1.624;2024-01-11T04:03:12;21.40;26.50
73121;DHT22;61307;49.628;-1.624;2024-01-11T04:05:39;21.40;26.60
73121;DHT22;61307;49.628;-1.624;2024-01-11T04:08:08;21.40;26.50
73121;DHT22;61307;49.628;-1.624;2024-01-11T04:10:35;21.40;26.50
73121;DHT22;61307;49.628;-1.624;2024-01-11T04:13:02;21.40;26.50
73121;DHT22;61307;49.628;-1.624;2024-01-11T04:15:29;21.40;26.50
73121;DHT22;61307;49.628;-1.624;2024-01-11T04:17:55;21.40;26.60
73121;DHT22;61307;49.628;-1.624;2024-01-11T04:20:22;21.40;26.50
73121;DHT22;61307;49.628;-1.624;2024-01-11T04:22:50;21.40;26.50
73121;DHT22;61307;49.628;-1.624;2024-01-11T04:25:18;21.40;26.50
73121;DHT22;61307;49.628;-1.624;2024-01-11T04:27:46;21.40;26.60
73121;DHT22;61307;49.628;-1.624;2024-01-11T04:30:13;21.40;26.50
73121;DHT22;61307;49.628;-1.624;2024-01-11T04:32:39;21.50;26.60
73121;DHT22;61307;49.628;-1.624;2024-01-11T04:35:07;21.40;26.60
73121;DHT22;61307;49.628;-1.624;2024-01-11T04:37:34;21.50;26.70
73121;DHT22;61307;49.628;-1.624;2024-01-11T04:40:02;21.50;26.70
73121;DHT22;61307;49.628;-1.624;2024-01-11T04:42:30;21.50;26.70
73121;DHT22;61307;49.628;-1.624;2024-01-11T04:44:57;21.40;26.50
73121;DHT22;61307;49.628;-1.624;2024-01-11T04:47:24;21.50;26.60
73121;DHT22;61307;49.628;-1.624;2024-01-11T04:49:51;21.50;26.60
73121;DHT22;61307;49.628;-1.624;2024-01-11T04:52:17;21.50;26.60
73121;DHT22;61307;49.628;-1.624;2024-01-11T04:54:44;21.50;26.60
73121;DHT22;61307;49.628;-1.624;2024-01-11T04:57:11;21.50;26.60
73121;DHT22;61307;49.628;-1.624;2024-01-11T04:59:39;21.50;26.60
73121;DHT22;61307;49.628;-1.624;2024-01-11T05:02:06;21.40;26.50
73121;DHT22;61307;49.628;-1.624;2024-01-11T05:04:33;21.40;26.50
73121;DHT22;61307;49.628;-1.624;2024-01-11T05:07:00;21.40;26.60
73121;DHT22;61307;49.628;-1.624;2024-01-11T05:09:27;21.50;26.70
73121;DHT22;61307;49.628;-1.624;2024-01-11T05:11:54;21.40;26.60
73121;DHT22;61307;49.628;-1.624;2024-01-11T05:14:21;21.40;26.60
73121;DHT22;61307;49.628;-1.624;2024-01-11T05:16:49;21.40;26.60
73121;DHT22;61307;49.628;-1.624;2024-01-11T05:19:16;21.50;26.60
73121;DHT22;61307;49.628;-1.624;2024-01-11T05:21:43;21.40;26.50
73121;DHT22;61307;49.628;-1.624;2024-01-11T05:24:10;21.50;26.60
73121;DHT22;61307;49.628;-1.624;2024-01-11T05:26:37;21.50;26.60
73121;DHT22;61307;49.628;-1.624;2024-01-11T05:29:04;21.50;26.60
73121;DHT22;61307;49.628;-1.624;2024-01-11T05:31:31;21.50;26.60
73121;DHT22;61307;49.628;-1.624;2024-01-11T05:33:59;21.50;26.60
73121;DHT22;61307;49.628;-1.624;2024-01-11T05:36:26;21.50;26.60
73121;DHT22;61307;49.628;-1.624;2024-01-11T05:38:53;21.50;26.60
73121;DHT22;61307;49.628;-1.624;2024-01-11T05:41:19;21.50;26.60
73121;DHT22;61307;49.628;-1.624;2024-01-11T05:43:46;21.50;26.60
73121;DHT22;61307;49.628;-1.624;2024-01-11T05:46:13;21.50;26.60
73121;DHT22;61307;49.628;-1.624;2024-01-11T05:48:40;21.50;26.60
73121;DHT22;61307;49.628;-1.624;2024-01-11T05:51:08;21.50;26.60
73121;DHT22;61307;49.628;-1.624;2024-01-11T05:53:35;21.50;26.60
73121;DHT22;61307;49.628;-1.624;2024-01-11T05:56:06;21.50;26.60
73121;DHT22;61307;49.628;-1.624;2024-01-11T05:58:33;21.50;26.60
73121;DHT22;61307;49.628;-1.624;2024-01-11T06:01:02;21.50;26.60
73121;DHT22;61307;49.628;-1.624;2024-01-11T06:03:28;21.50;26.60
73121;DHT22;61307;49.628;-1.624;2024-01-11T06:05:59;21.50;26.70
73121;DHT22;61307;49.628;-1.624;2024-01-11T06:08:29;21.50;26.60
73121;DHT22;61307;49.628;-1.624;2024-01-11T06:10:55;21.50;26.70
73121;DHT22;61307;49.628;-1.624;2024-01-11T06:13:21;21.50;26.60
73121;DHT22;61307;49.628;-1.624;2024-01-11T06:15:48;21.50;26.60
73121;DHT22;61307;49.628;-1.624;2024-01-11T06:18:15;21.50;26.70
73121;DHT22;61307;49.628;-1.624;2024-01-11T06:20:42;21.50;26.70
73121;DHT22;61307;49.628;-1.624;2024-01-11T06:23:09;21.50;26.60
73121;DHT22;61307;49.628;-1.624;2024-01-11T06:25:37;21.50;26.70
73121;DHT22;61307;49.628;-1.624;2024-01-11T06:28:05;21.50;26.70
73121;DHT22;61307;49.628;-1.624;2024-01-11T06:30:32;21.50;26.60
73121;DHT22;61307;49.628;-1.624;2024-01-11T06:32:59;21.50;26.70
73121;DHT22;61307;49.628;-1.624;2024-01-11T06:35:26;21.50;26.70
73121;DHT22;61307;49.628;-1.624;2024-01-11T06:37:52;21.50;26.60
73121;DHT22;61307;49.628;-1.624;2024-01-11T06:40:19;21.50;27.10
73121;DHT22;61307;49.628;-1.624;2024-01-11T06:42:47;21.50;26.70
73121;DHT22;61307;49.628;-1.624;2024-01-11T06:45:14;21.60;26.70
73121;DHT22;61307;49.628;-1.624;2024-01-11T06:47:41;21.60;26.70
73121;DHT22;61307;49.628;-1.624;2024-01-11T06:50:12;21.50;26.70
73121;DHT22;61307;49.628;-1.624;2024-01-11T06:52:39;21.60;26.80
73121;DHT22;61307;49.628;-1.624;2024-01-11T06:55:07;21.50;26.70
73121;DHT22;61307;49.628;-1.624;2024-01-11T06:57:34;21.60;26.80
73121;DHT22;61307;49.628;-1.624;2024-01-11T07:00:03;21.60;26.70
73121;DHT22;61307;49.628;-1.624;2024-01-11T07:02:31;21.60;26.80
73121;DHT22;61307;49.628;-1.624;2024-01-11T07:04:57;21.50;27.20
73121;DHT22;61307;49.628;-1.624;2024-01-11T07:07:25;21.50;26.70
73121;DHT22;61307;49.628;-1.624;2024-01-11T07:09:52;21.60;26.80
73121;DHT22;61307;49.628;-1.624;2024-01-11T07:12:21;21.60;26.80
73121;DHT22;61307;49.628;-1.624;2024-01-11T07:14:48;21.60;26.80
73121;DHT22;61307;49.628;-1.624;2024-01-11T07:17:16;21.60;26.80
73121;DHT22;61307;49.628;-1.624;2024-01-11T07:19:43;21.60;26.80
73121;DHT22;61307;49.628;-1.624;2024-01-11T07:22:10;21.60;26.80
73121;DHT22;61307;49.628;-1.624;2024-01-11T07:24:37;21.60;26.80
73121;DHT22;61307;49.628;-1.624;2024-01-11T07:27:04;21.60;26.80
73121;DHT22;61307;49.628;-1.624;2024-01-11T07:29:31;21.60;26.90
73121;DHT22;61307;49.628;-1.624;2024-01-11T07:31:58;21.60;26.90
73121;DHT22;61307;49.628;-1.624;2024-01-11T07:34:26;21.60;26.90
73121;DHT22;61307;49.628;-1.624;2024-01-11T07:36:53;21.60;26.90
73121;DHT22;61307;49.628;-1.624;2024-01-11T07:39:20;21.60;26.90
73121;DHT22;61307;49.628;-1.624;2024-01-11T07:41:48;21.60;26.90
73121;DHT22;61307;49.628;-1.624;2024-01-11T07:44:15;21.60;26.90
73121;DHT22;61307;49.628;-1.624;2024-01-11T07:46:42;21.60;26.90
73121;DHT22;61307;49.628;-1.624;2024-01-11T07:49:09;21.60;26.90
73121;DHT22;61307;49.628;-1.624;2024-01-11T07:51:38;21.60;27.00
73121;DHT22;61307;49.628;-1.624;2024-01-11T07:54:05;21.60;27.00
73121;DHT22;61307;49.628;-1.624;2024-01-11T07:56:32;21.60;27.20
73121;DHT22;61307;49.628;-1.624;2024-01-11T07:59:01;21.60;27.30
73121;DHT22;61307;49.628;-1.624;2024-01-11T08:01:27;21.50;27.40
73121;DHT22;61307;49.628;-1.624;2024-01-11T08:03:54;21.60;27.90
73121;DHT22;61307;49.628;-1.624;2024-01-11T08:06:21;21.60;28.80
73121;DHT22;61307;49.628;-1.624;2024-01-11T08:08:50;21.60;28.30
73121;DHT22;61307;49.628;-1.624;2024-01-11T08:11:18;21.70;28.30
73121;DHT22;61307;49.628;-1.624;2024-01-11T08:13:46;21.70;28.30
73121;DHT22;61307;49.628;-1.624;2024-01-11T08:16:16;21.70;28.30
73121;DHT22;61307;49.628;-1.624;2024-01-11T08:18:43;21.70;29.10
73121;DHT22;61307;49.628;-1.624;2024-01-11T08:21:11;21.70;29.00
73121;DHT22;61307;49.628;-1.624;2024-01-11T08:23:40;21.80;29.20
73121;DHT22;61307;49.628;-1.624;2024-01-11T08:26:12;21.80;29.50
73121;DHT22;61307;49.628;-1.624;2024-01-11T08:28:39;21.80;29.40
73121;DHT22;61307;49.628;-1.624;2024-01-11T08:31:07;21.80;29.80
73121;DHT22;61307;49.628;-1.624;2024-01-11T08:33:34;21.80;30.00
73121;DHT22;61307;49.628;-1.624;2024-01-11T08:36:03;21.90;30.00
73121;DHT22;61307;49.628;-1.624;2024-01-11T08:38:30;21.90;30.10
73121;DHT22;61307;49.628;-1.624;2024-01-11T08:40:57;22.00;30.10
73121;DHT22;61307;49.628;-1.624;2024-01-11T08:43:27;22.00;30.10
73121;DHT22;61307;49.628;-1.624;2024-01-11T08:45:54;22.00;30.30
73121;DHT22;61307;49.628;-1.624;2024-01-11T08:48:21;22.10;30.60
73121;DHT22;61307;49.628;-1.624;2024-01-11T08:50:48;22.20;30.90
73121;DHT22;61307;49.628;-1.624;2024-01-11T08:53:15;22.20;30.40
73121;DHT22;61307;49.628;-1.624;2024-01-11T08:55:43;22.30;30.50
73121;DHT22;61307;49.628;-1.624;2024-01-11T08:58:10;22.20;30.40
73121;DHT22;61307;49.628;-1.624;2024-01-11T09:00:39;22.20;30.40
73121;DHT22;61307;49.628;-1.624;2024-01-11T09:03:06;22.20;30.40
73121;DHT22;61307;49.628;-1.624;2024-01-11T09:05:33;22.20;30.70
73121;DHT22;61307;49.628;-1.624;2024-01-11T09:08:00;22.20;30.80
73121;DHT22;61307;49.628;-1.624;2024-01-11T09:10:27;22.20;30.70
73121;DHT22;61307;49.628;-1.624;2024-01-11T09:12:54;22.30;30.60
73121;DHT22;61307;49.628;-1.624;2024-01-11T09:15:21;22.30;30.60
73121;DHT22;61307;49.628;-1.624;2024-01-11T09:17:50;22.20;30.60
73121;DHT22;61307;49.628;-1.624;2024-01-11T09:20:17;22.20;30.70
73121;DHT22;61307;49.628;-1.624;2024-01-11T09:22:44;22.30;30.80
73121;DHT22;61307;49.628;-1.624;2024-01-11T09:25:12;22.30;31.20
73121;DHT22;61307;49.628;-1.624;2024-01-11T09:27:39;22.30;30.90
73121;DHT22;61307;49.628;-1.624;2024-01-11T09:30:07;22.30;31.00
73121;DHT22;61307;49.628;-1.624;2024-01-11T09:32:35;22.40;31.10
73121;DHT22;61307;49.628;-1.624;2024-01-11T09:35:04;22.40;31.10
73121;DHT22;61307;49.628;-1.624;2024-01-11T09:37:31;22.40;31.20
73121;DHT22;61307;49.628;-1.624;2024-01-11T09:39:58;22.30;31.30
73121;DHT22;61307;49.628;-1.624;2024-01-11T09:42:27;22.40;31.40
73121;DHT22;61307;49.628;-1.624;2024-01-11T09:44:56;22.40;31.40
73121;DHT22;61307;49.628;-1.624;2024-01-11T09:47:24;22.40;31.50
73121;DHT22;61307;49.628;-1.624;2024-01-11T09:49:53;22.40;31.40
73121;DHT22;61307;49.628;-1.624;2024-01-11T09:52:23;22.40;31.40
73121;DHT22;61307;49.628;-1.624;2024-01-11T09:54:52;22.40;31.30
73121;DHT22;61307;49.628;-1.624;2024-01-11T09:57:24;22.40;31.50
73121;DHT22;61307;49.628;-1.624;2024-01-11T09:59:55;22.40;31.60
73121;DHT22;61307;49.628;-1.624;2024-01-11T10:02:23;22.40;32.20
73121;DHT22;61307;49.628;-1.624;2024-01-11T10:04:52;22.50;31.60
73121;DHT22;61307;49.628;-1.624;2024-01-11T10:07:23;22.50;31.60
73121;DHT22;61307;49.628;-1.624;2024-01-11T10:09:51;22.50;31.50
73121;DHT22;61307;49.628;-1.624;2024-01-11T10:12:18;22.50;31.60
73121;DHT22;61307;49.628;-1.624;2024-01-11T10:14:48;22.50;31.50
73121;DHT22;61307;49.628;-1.624;2024-01-11T10:17:15;22.50;31.40
73121;DHT22;61307;49.628;-1.624;2024-01-11T10:19:42;22.50;31.50
73121;DHT22;61307;49.628;-1.624;2024-01-11T10:22:09;22.50;31.60
73121;DHT22;61307;49.628;-1.624;2024-01-11T10:24:40;22.60;31.70
73121;DHT22;61307;49.628;-1.624;2024-01-11T10:27:08;22.60;31.70
73121;DHT22;61307;49.628;-1.624;2024-01-11T10:29:36;22.60;31.60
73121;DHT22;61307;49.628;-1.624;2024-01-11T10:32:04;22.60;31.80
73121;DHT22;61307;49.628;-1.624;2024-01-11T10:34:31;22.60;31.80
73121;DHT22;61307;49.628;-1.624;2024-01-11T10:36:59;22.60;31.80
73121;DHT22;61307;49.628;-1.624;2024-01-11T10:39:27;22.60;31.70
73121;DHT22;61307;49.628;-1.624;2024-01-11T10:42:06;22.60;31.60
73121;DHT22;61307;49.628;-1.624;2024-01-11T10:44:35;22.60;31.60
73121;DHT22;61307;49.628;-1.624;2024-01-11T10:47:03;22.60;31.50
73121;DHT22;61307;49.628;-1.624;2024-01-11T10:49:32;22.70;31.60
73121;DHT22;61307;49.628;-1.624;2024-01-11T10:52:02;22.70;31.70
73121;DHT22;61307;49.628;-1.624;2024-01-11T10:54:30;22.70;31.70
73121;DHT22;61307;49.628;-1.624;2024-01-11T10:57:00;22.70;31.70
73121;DHT22;61307;49.628;-1.624;2024-01-11T10:59:29;22.70;31.60
73121;DHT22;61307;49.628;-1.624;2024-01-11T11:01:59;22.70;31.60
73121;DHT22;61307;49.628;-1.624;2024-01-11T11:04:30;22.80;31.80
73121;DHT22;61307;49.628;-1.624;2024-01-11T11:06:58;22.80;31.80
73121;DHT22;61307;49.628;-1.624;2024-01-11T11:09:27;22.70;32.30
73121;DHT22;61307;49.628;-1.624;2024-01-11T11:11:56;22.80;31.70
73121;DHT22;61307;49.628;-1.624;2024-01-11T11:14:26;22.80;31.90
73121;DHT22;61307;49.628;-1.624;2024-01-11T11:16:54;22.70;31.80
73121;DHT22;61307;49.628;-1.624;2024-01-11T11:19:21;22.80;32.00
73121;DHT22;61307;49.628;-1.624;2024-01-11T11:21:49;22.80;31.90
73121;DHT22;61307;49.628;-1.624;2024-01-11T11:24:16;22.70;31.80
73121;DHT22;61307;49.628;-1.624;2024-01-11T11:26:44;22.70;31.80
73121;DHT22;61307;49.628;-1.624;2024-01-11T11:29:11;22.70;31.80
73121;DHT22;61307;49.628;-1.624;2024-01-11T11:31:42;22.70;31.70
73121;DHT22;61307;49.628;-1.624;2024-01-11T11:34:11;22.60;32.20
73121;DHT22;61307;49.628;-1.624;2024-01-11T11:36:40;22.60;31.40
73121;DHT22;61307;49.628;-1.624;2024-01-11T11:39:09;22.60;31.30
73121;DHT22;61307;49.628;-1.624;2024-01-11T11:41:38;22.60;31.30
73121;DHT22;61307;49.628;-1.624;2024-01-11T11:44:06;22.60;31.30
73121;DHT22;61307;49.628;-1.624;2024-01-11T11:46:33;22.60;31.20
73121;DHT22;61307;49.628;-1.624;2024-01-11T11:49:02;22.60;31.30
73121;DHT22;61307;49.628;-1.624;2024-01-11T11:51:29;22.60;31.10
73121;DHT22;61307;49.628;-1.624;2024-01-11T11:53:57;22.60;31.10
73121;DHT22;61307;49.628;-1.624;2024-01-11T11:56:24;22.60;31.10
73121;DHT22;61307;49.628;-1.624;2024-01-11T11:58:52;22.60;31.00
73121;DHT22;61307;49.628;-1.624;2024-01-11T12:01:20;22.60;31.00
73121;DHT22;61307;49.628;-1.624;2024-01-11T12:03:47;22.60;31.00
73121;DHT22;61307;49.628;-1.624;2024-01-11T12:06:18;22.60;31.00
73121;DHT22;61307;49.628;-1.624;2024-01-11T12:08:46;22.60;30.90
73121;DHT22;61307;49.628;-1.624;2024-01-11T12:11:14;22.60;30.80
73121;DHT22;61307;49.628;-1.624;2024-01-11T12:13:41;22.60;30.80
73121;DHT22;61307;49.628;-1.624;2024-01-11T12:16:10;22.60;30.90
73121;DHT22;61307;49.628;-1.624;2024-01-11T12:18:38;22.60;30.80
73121;DHT22;61307;49.628;-1.624;2024-01-11T12:21:05;22.60;30.70
73121;DHT22;61307;49.628;-1.624;2024-01-11T12:23:36;22.60;30.60
73121;DHT22;61307;49.628;-1.624;2024-01-11T12:26:04;22.60;30.60
73121;DHT22;61307;49.628;-1.624;2024-01-11T12:28:33;22.60;30.60
73121;DHT22;61307;49.628;-1.624;2024-01-11T12:31:01;22.60;30.50
73121;DHT22;61307;49.628;-1.624;2024-01-11T12:33:29;22.70;30.60
73121;DHT22;61307;49.628;-1.624;2024-01-11T12:35:56;22.70;30.50
73121;DHT22;61307;49.628;-1.624;2024-01-11T12:38:23;22.70;30.50
73121;DHT22;61307;49.628;-1.624;2024-01-11T12:40:52;22.70;30.60
73121;DHT22;61307;49.628;-1.624;2024-01-11T12:43:19;22.70;30.60
73121;DHT22;61307;49.628;-1.624;2024-01-11T12:45:46;22.70;30.70
73121;DHT22;61307;49.628;-1.624;2024-01-11T12:48:13;22.70;30.60
73121;DHT22;61307;49.628;-1.624;2024-01-11T12:50:42;22.70;31.30
73121;DHT22;61307;49.628;-1.624;2024-01-11T12:53:10;22.70;30.60
73121;DHT22;61307;49.628;-1.624;2024-01-11T12:55:43;22.70;30.60
73121;DHT22;61307;49.628;-1.624;2024-01-11T12:58:12;22.70;30.70
73121;DHT22;61307;49.628;-1.624;2024-01-11T13:00:39;22.80;30.60
73121;DHT22;61307;49.628;-1.624;2024-01-11T13:03:07;22.80;30.70
73121;DHT22;61307;49.628;-1.624;2024-01-11T13:05:35;22.70;30.70
73121;DHT22;61307;49.628;-1.624;2024-01-11T13:08:07;22.80;30.80
73121;DHT22;61307;49.628;-1.624;2024-01-11T13:10:35;22.70;31.00
73121;DHT22;61307;49.628;-1.624;2024-01-11T13:13:02;22.80;31.00
73121;DHT22;61307;49.628;-1.624;2024-01-11T13:15:31;22.80;30.90
73121;DHT22;61307;49.628;-1.624;2024-01-11T13:17:59;22.80;30.80
73121;DHT22;61307;49.628;-1.624;2024-01-11T13:20:27;22.80;30.80
73121;DHT22;61307;49.628;-1.624;2024-01-11T13:23:11;22.80;31.00
73121;DHT22;61307;49.628;-1.624;2024-01-11T13:25:39;22.80;31.00
73121;DHT22;61307;49.628;-1.624;2024-01-11T13:28:06;22.80;30.90
73121;DHT22;61307;49.628;-1.624;2024-01-11T13:30:35;22.80;30.80
73121;DHT22;61307;49.628;-1.624;2024-01-11T13:33:03;22.80;31.00
73121;DHT22;61307;49.628;-1.624;2024-01-11T13:35:30;22.80;31.10
73121;DHT22;61307;49.628;-1.624;2024-01-11T13:37:57;22.80;31.20
73121;DHT22;61307;49.628;-1.624;2024-01-11T13:40:24;22.80;31.20
73121;DHT22;61307;49.628;-1.624;2024-01-11T13:42:54;22.80;31.20
73121;DHT22;61307;49.628;-1.624;2024-01-11T13:45:21;22.90;31.30
73121;DHT22;61307;49.628;-1.624;2024-01-11T13:47:49;22.90;31.50
73121;DHT22;61307;49.628;-1.624;2024-01-11T13:50:16;22.90;31.40
73121;DHT22;61307;49.628;-1.624;2024-01-11T13:52:44;22.90;31.40
73121;DHT22;61307;49.628;-1.624;2024-01-11T13:55:12;22.90;31.40
73121;DHT22;61307;49.628;-1.624;2024-01-11T13:57:39;22.90;31.30
73121;DHT22;61307;49.628;-1.624;2024-01-11T14:00:09;22.80;31.10
73121;DHT22;61307;49.628;-1.624;2024-01-11T14:02:37;22.80;31.20
73121;DHT22;61307;49.628;-1.624;2024-01-11T14:05:07;22.80;31.20
73121;DHT22;61307;49.628;-1.624;2024-01-11T14:07:37;22.80;31.30
73121;DHT22;61307;49.628;-1.624;2024-01-11T14:10:06;22.70;31.50
73121;DHT22;61307;49.628;-1.624;2024-01-11T14:12:34;22.70;31.60
73121;DHT22;61307;49.628;-1.624;2024-01-11T14:15:02;22.70;31.80
73121;DHT22;61307;49.628;-1.624;2024-01-11T14:17:29;22.70;31.90
73121;DHT22;61307;49.628;-1.624;2024-01-11T14:19:56;22.70;32.00
73121;DHT22;61307;49.628;-1.624;2024-01-11T14:22:24;22.60;32.00
73121;DHT22;61307;49.628;-1.624;2024-01-11T14:24:51;22.60;32.10
73121;DHT22;61307;49.628;-1.624;2024-01-11T14:27:19;22.60;32.30
73121;DHT22;61307;49.628;-1.624;2024-01-11T14:29:46;22.60;32.30
73121;DHT22;61307;49.628;-1.624;2024-01-11T14:32:14;22.60;32.40
73121;DHT22;61307;49.628;-1.624;2024-01-11T14:34:42;22.60;32.50
73121;DHT22;61307;49.628;-1.624;2024-01-11T14:37:10;22.60;32.60
73121;DHT22;61307;49.628;-1.624;2024-01-11T14:39:38;22.60;32.60
73121;DHT22;61307;49.628;-1.624;2024-01-11T14:42:06;22.60;32.70
73121;DHT22;61307;49.628;-1.624;2024-01-11T14:44:34;22.60;32.80
73121;DHT22;61307;49.628;-1.624;2024-01-11T14:47:02;22.60;32.80
73121;DHT22;61307;49.628;-1.624;2024-01-11T14:49:29;22.60;32.90
73121;DHT22;61307;49.628;-1.624;2024-01-11T14:52:14;22.60;33.00
73121;DHT22;61307;49.628;-1.624;2024-01-11T14:54:46;22.60;33.80
73121;DHT22;61307;49.628;-1.624;2024-01-11T14:57:17;22.70;33.10
73121;DHT22;61307;49.628;-1.624;2024-01-11T14:59:50;22.60;33.30
73121;DHT22;61307;49.628;-1.624;2024-01-11T15:02:17;22.70;33.30
73121;DHT22;61307;49.628;-1.624;2024-01-11T15:04:50;22.70;33.40
73121;DHT22;61307;49.628;-1.624;2024-01-11T15:07:19;22.70;33.40
73121;DHT22;61307;49.628;-1.624;2024-01-11T15:09:50;22.70;33.50
73121;DHT22;61307;49.628;-1.624;2024-01-11T15:12:26;22.80;33.40
73121;DHT22;61307;49.628;-1.624;2024-01-11T15:14:55;22.80;33.20
73121;DHT22;61307;49.628;-1.624;2024-01-11T15:17:26;22.80;33.10